sensor_id;sensor_type;location;lat;lon;timestamp;temperature;humidity
4934;DHT22;2482;49.154;8.254;2023-11-22T00:00:22;6.50;99.90
4934;DHT22;2482;49.154;8.254;2023-11-22T00:02:50;6.50;99.90
4934;DHT22;2482;49.154;8.254;2023-11-22T00:05:17;6.40;99.90
4934;DHT22;2482;49.154;8.254;2023-11-22T00:07:48;6.40;99.90
4934;DHT22;2482;49.154;8.254;2023-11-22T00:10:15;6.30;99.90
4934;DHT22;2482;49.154;8.254;2023-11-22T00:12:42;6.20;99.90
4934;DHT22;2482;49.154;8.254;2023-11-22T00:15:09;6.10;99.90
4934;DHT22;2482;49.154;8.254;2023-11-22T00:17:38;6.10;99.90
4934;DHT22;2482;49.154;8.254;2023-11-22T00:20:06;6.00;99.90
4934;DHT22;2482;49.154;8.254;2023-11-22T00:22:35;6.00;99.90
4934;DHT22;2482;49.154;8.254;2023-11-22T00:25:02;6.10;99.90
4934;DHT22;2482;49.154;8.254;2023-11-22T00:27:31;6.00;99.90
4934;DHT22;2482;49.154;8.254;2023-11-22T00:29:58;6.00;99.90
4934;DHT22;2482;49.154;8.254;2023-11-22T00:32:25;5.90;99.90
4934;DHT22;2482;49.154;8.254;2023-11-22T00:35:07;5.70;99.90
4934;DHT22;2482;49.154;8.254;2023-11-22T00:37:35;5.60;99.90
4934;DHT22;2482;49.154;8.254;2023-11-22T00:40:02;5.50;99.90
4934;DHT22;2482;49.154;8.254;2023-11-22T00:42:37;5.40;99.90
4934;DHT22;2482;49.154;8.254;2023-11-22T00:45:07;5.30;99.90
4934;DHT22;2482;49.154;8.254;2023-11-22T00:47:38;5.30;99.90
4934;DHT22;2482;49.154;8.254;2023-11-22T00:50:06;5.30;99.90
4934;DHT22;2482;49.154;8.254;2023-11-22T00:52:34;5.30;99.90
4934;DHT22;2482;49.154;8.254;2023-11-22T00:55:02;5.40;99.90
4934;DHT22;2482;49.154;8.254;2023-11-22T00:57:29;5.30;99.90
4934;DHT22;2482;49.154;8.254;2023-11-22T00:59:57;5.30;99.90
4934;DHT22;2482;49.154;8.254;2023-11-22T01:02:24;5.30;99.90
4934;DHT22;2482;49.154;8.254;2023-11-22T01:04:54;5.30;99.90
4934;DHT22;2482;49.154;8.254;2023-11-22T01:07:21;5.30;99.90
4934;DHT22;2482;49.154;8.254;2023-11-22T01:09:48;5.30;99.90
4934;DHT22;2482;49.154;8.254;2023-11-22T01:12:15;5.20;99.90
4934;DHT22;2482;49.154;8.254;2023-11-22T01:14:50;5.10;99.90
4934;DHT22;2482;49.154;8.254;2023-11-22T01:17:17;5.10;99.90
4934;DHT22;2482;49.154;8.254;2023-11-22T01:19:44;5.10;99.90
4934;DHT22;2482;49.154;8.254;2023-11-22T01:22:11;5.10;99.90
4934;DHT22;2482;49.154;8.254;2023-11-22T01:24:38;5.10;99.90
4934;DHT22;2482;49.154;8.254;2023-11-22T01:27:05;5.00;99.90
4934;DHT22;2482;49.154;8.254;2023-11-22T01:29:32;5.10;99.90
4934;DHT22;2482;49.154;8.254;2023-11-22T01:32:01;5.00;99.90
4934;DHT22;2482;49.154;8.254;2023-11-22T01:34:30;5.00;99.90
4934;DHT22;2482;49.154;8.254;2023-11-22T01:36:57;5.10;99.90
4934;DHT22;2482;49.154;8.254;2023-11-22T01:39:24;5.10;99.90
4934;DHT22;2482;49.154;8.254;2023-11-22T01:41:53;5.10;99.90
4934;DHT22;2482;49.154;8.254;2023-11-22T01:44:20;5.10;99.90
4934;DHT22;2482;49.154;8.254;2023-11-22T01:46:48;5.10;99.90
4934;DHT22;2482;49.154;8.254;2023-11-22T01:49:15;5.10;99.90
4934;DHT22;2482;49.154;8.254;2023-11-22T01:51:45;5.20;99.90
4934;DHT22;2482;49.154;8.254;2023-11-22T01:54:12;5.10;99.90
4934;DHT22;2482;49.154;8.254;2023-11-22T01:56:40;5.10;99.90
4934;DHT22;2482;49.154;8.254;2023-11-22T01:59:09;5.10;99.90
4934;DHT22;2482;49.154;8.254;2023-11-22T02:01:36;5.10;99.90
4934;DHT22;2482;49.154;8.254;2023-11-22T02:04:04;5.00;99.90
4934;DHT22;2482;49.154;8.254;2023-11-22T02:06:31;5.20;99.90
4934;DHT22;2482;49.154;8.254;2023-11-22T02:08:58;5.20;99.90
4934;DHT22;2482;49.154;8.254;2023-11-22T02:11:26;5.00;99.90
4934;DHT22;2482;49.154;8.254;2023-11-22T02:13:54;5.00;99.90
4934;DHT22;2482;49.154;8.254;2023-11-22T02:16:22;5.00;99.90
4934;DHT22;2482;49.154;8.254;2023-11-22T02:18:53;4.90;99.90
4934;DHT22;2482;49.154;8.254;2023-11-22T02:21:20;5.00;99.90
4934;DHT22;2482;49.154;8.254;2023-11-22T02:23:49;4.90;99.90
4934;DHT22;2482;49.154;8.254;2023-11-22T02:26:16;4.90;99.90
4934;DHT22;2482;49.154;8.254;2023-11-22T02:28:45;4.70;99.90
4934;DHT22;2482;49.154;8.254;2023-11-22T02:31:12;4.80;99.90
4934;DHT22;2482;49.154;8.254;2023-11-22T02:33:39;4.80;99.90
4934;DHT22;2482;49.154;8.254;2023-11-22T02:36:07;4.70;99.90
4934;DHT22;2482;49.154;8.254;2023-11-22T02:38:34;4.60;99.90
4934;DHT22;2482;49.154;8.254;2023-11-22T02:41:01;4.50;99.90
4934;DHT22;2482;49.154;8.254;2023-11-22T02:43:31;4.40;99.90
4934;DHT22;2482;49.154;8.254;2023-11-22T02:45:58;4.40;99.90
4934;DHT22;2482;49.154;8.254;2023-11-22T02:48:25;4.20;99.90
4934;DHT22;2482;49.154;8.254;2023-11-22T02:50:52;4.20;99.90
4934;DHT22;2482;49.154;8.254;2023-11-22T02:53:20;4.20;99.90
4934;DHT22;2482;49.154;8.254;2023-11-22T02:55:50;4.10;99.90
4934;DHT22;2482;49.154;8.254;2023-11-22T02:58:21;4.00;99.90
4934;DHT22;2482;49.154;8.254;2023-11-22T03:00:48;4.00;99.90
4934;DHT22;2482;49.154;8.254;2023-11-22T03:03:19;4.00;99.90
4934;DHT22;2482;49.154;8.254;2023-11-22T03:05:46;3.90;99.90
4934;DHT22;2482;49.154;8.254;2023-11-22T03:08:13;3.80;99.90
4934;DHT22;2482;49.154;8.254;2023-11-22T03:10:42;3.90;99.90
4934;DHT22;2482;49.154;8.254;2023-11-22T03:13:09;3.80;99.90
4934;DHT22;2482;49.154;8.254;2023-11-22T03:15:36;3.70;99.90
4934;DHT22;2482;49.154;8.254;2023-11-22T03:18:04;3.70;99.90
4934;DHT22;2482;49.154;8.254;2023-11-22T03:20:33;3.70;99.90
4934;DHT22;2482;49.154;8.254;2023-11-22T03:23:01;3.60;99.90
4934;DHT22;2482;49.154;8.254;2023-11-22T03:25:30;3.70;99.90
4934;DHT22;2482;49.154;8.254;2023-11-22T03:28:04;3.70;99.90
4934;DHT22;2482;49.154;8.254;2023-11-22T03:30:30;3.60;99.90
4934;DHT22;2482;49.154;8.254;2023-11-22T03:32:58;3.50;99.90
4934;DHT22;2482;49.154;8.254;2023-11-22T03:35:25;3.40;99.90
4934;DHT22;2482;49.154;8.254;2023-11-22T03:37:52;3.50;99.90
4934;DHT22;2482;49.154;8.254;2023-11-22T03:40:19;3.40;99.90
4934;DHT22;2482;49.154;8.254;2023-11-22T03:42:46;3.20;99.90
4934;DHT22;2482;49.154;8.254;2023-11-22T03:45:13;3.40;99.90
4934;DHT22;2482;49.154;8.254;2023-11-22T03:47:41;3.30;99.90
4934;DHT22;2482;49.154;8.254;2023-11-22T03:50:09;3.40;99.90
4934;DHT22;2482;49.154;8.254;2023-11-22T03:52:37;3.20;99.90
4934;DHT22;2482;49.154;8.254;2023-11-22T03:55:04;3.30;99.90
4934;DHT22;2482;49.154;8.254;2023-11-22T03:57:32;3.20;99.90
4934;DHT22;2482;49.154;8.254;2023-11-22T03:59:59;3.30;99.90
4934;DHT22;2482;49.154;8.254;2023-11-22T04:02:26;3.10;99.90
4934;DHT22;2482;49.154;8.254;2023-11-22T04:04:54;3.10;99.90
4934;DHT22;2482;49.154;8.254;2023-11-22T04:07:22;3.20;99.90
4934;DHT22;2482;49.154;8.254;2023-11-22T04:09:49;3.10;99.90
4934;DHT22;2482;49.154;8.254;2023-11-22T04:12:21;3.10;99.90
4934;DHT22;2482;49.154;8.254;2023-11-22T04:14:48;3.00;99.90
4934;DHT22;2482;49.154;8.254;2023-11-22T04:17:16;3.10;99.90
4934;DHT22;2482;49.154;8.254;2023-11-22T04:19:44;3.00;99.90
4934;DHT22;2482;49.154;8.254;2023-11-22T04:22:11;2.90;99.90
4934;DHT22;2482;49.154;8.254;2023-11-22T04:24:40;3.00;99.90
4934;DHT22;2482;49.154;8.254;2023-11-22T04:27:07;2.90;99.90
4934;DHT22;2482;49.154;8.254;2023-11-22T04:29:34;2.80;99.90
4934;DHT22;2482;49.154;8.254;2023-11-22T04:32:01;2.80;99.90
4934;DHT22;2482;49.154;8.254;2023-11-22T04:34:29;2.90;99.90
4934;DHT22;2482;49.154;8.254;2023-11-22T04:36:56;2.90;99.90
4934;DHT22;2482;49.154;8.254;2023-11-22T04:39:23;3.00;99.90
4934;DHT22;2482;49.154;8.254;2023-11-22T04:42:09;2.90;99.90
4934;DHT22;2482;49.154;8.254;2023-11-22T04:44:36;3.00;99.90
4934;DHT22;2482;49.154;8.254;2023-11-22T04:47:03;3.00;99.90
4934;DHT22;2482;49.154;8.254;2023-11-22T04:49:32;3.00;99.90
4934;DHT22;2482;49.154;8.254;2023-11-22T04:51:59;3.10;99.90
4934;DHT22;2482;49.154;8.254;2023-11-22T04:54:26;2.90;99.90
4934;DHT22;2482;49.154;8.254;2023-11-22T04:56:53;3.00;99.90
4934;DHT22;2482;49.154;8.254;2023-11-22T04:59:20;2.90;99.90
4934;DHT22;2482;49.154;8.254;2023-11-22T05:01:47;2.80;99.90
4934;DHT22;2482;49.154;8.254;2023-11-22T05:04:15;2.80;99.90
4934;DHT22;2482;49.154;8.254;2023-11-22T05:06:42;2.80;99.90
4934;DHT22;2482;49.154;8.254;2023-11-22T05:09:21;2.70;99.90
4934;DHT22;2482;49.154;8.254;2023-11-22T05:11:48;2.70;99.90
4934;DHT22;2482;49.154;8.254;2023-11-22T05:14:16;2.70;99.90
4934;DHT22;2482;49.154;8.254;2023-11-22T05:16:43;2.60;99.90
4934;DHT22;2482;49.154;8.254;2023-11-22T05:19:10;2.60;99.90
4934;DHT22;2482;49.154;8.254;2023-11-22T05:21:38;2.60;99.90
4934;DHT22;2482;49.154;8.254;2023-11-22T05:24:06;2.50;99.90
4934;DHT22;2482;49.154;8.254;2023-11-22T05:26:34;2.50;99.90
4934;DHT22;2482;49.154;8.254;2023-11-22T05:29:04;2.60;99.90
4934;DHT22;2482;49.154;8.254;2023-11-22T05:31:31;2.50;99.90
4934;DHT22;2482;49.154;8.254;2023-11-22T05:33:59;2.50;99.90
4934;DHT22;2482;49.154;8.254;2023-11-22T05:36:26;2.70;99.90
4934;DHT22;2482;49.154;8.254;2023-11-22T05:38:53;2.60;99.90
4934;DHT22;2482;49.154;8.254;2023-11-22T05:41:20;2.50;99.90
4934;DHT22;2482;49.154;8.254;2023-11-22T05:43:47;2.40;99.90
4934;DHT22;2482;49.154;8.254;2023-11-22T05:46:14;2.30;99.90
4934;DHT22;2482;49.154;8.254;2023-11-22T05:48:52;2.40;99.90
4934;DHT22;2482;49.154;8.254;2023-11-22T05:51:19;2.40;99.90
4934;DHT22;2482;49.154;8.254;2023-11-22T05:53:46;2.40;99.90
4934;DHT22;2482;49.154;8.254;2023-11-22T05:56:13;2.40;99.90
4934;DHT22;2482;49.154;8.254;2023-11-22T05:58:41;2.40;99.90
4934;DHT22;2482;49.154;8.254;2023-11-22T06:01:09;2.30;99.90
4934;DHT22;2482;49.154;8.254;2023-11-22T06:03:37;2.20;99.90
4934;DHT22;2482;49.154;8.254;2023-11-22T06:06:06;2.20;99.90
4934;DHT22;2482;49.154;8.254;2023-11-22T06:08:33;2.10;99.90
4934;DHT22;2482;49.154;8.254;2023-11-22T06:11:00;2.20;99.90
4934;DHT22;2482;49.154;8.254;2023-11-22T06:13:29;2.30;99.90
4934;DHT22;2482;49.154;8.254;2023-11-22T06:15:56;2.20;99.90
4934;DHT22;2482;49.154;8.254;2023-11-22T06:18:23;2.10;99.90
4934;DHT22;2482;49.154;8.254;2023-11-22T06:20:56;2.10;99.90
4934;DHT22;2482;49.154;8.254;2023-11-22T06:23:23;2.20;99.90
4934;DHT22;2482;49.154;8.254;2023-11-22T06:25:50;2.10;99.90
4934;DHT22;2482;49.154;8.254;2023-11-22T06:28:18;2.10;99.90
4934;DHT22;2482;49.154;8.254;2023-11-22T06:30:45;2.10;99.90
4934;DHT22;2482;49.154;8.254;2023-11-22T06:33:12;2.30;99.90
4934;DHT22;2482;49.154;8.254;2023-11-22T06:35:39;2.00;99.90
4934;DHT22;2482;49.154;8.254;2023-11-22T06:38:08;2.00;99.90
4934;DHT22;2482;49.154;8.254;2023-11-22T06:40:36;2.00;99.90
4934;DHT22;2482;49.154;8.254;2023-11-22T06:43:04;1.90;99.90
4934;DHT22;2482;49.154;8.254;2023-11-22T06:45:32;1.90;99.90
4934;DHT22;2482;49.154;8.254;2023-11-22T06:47:59;1.80;99.90
4934;DHT22;2482;49.154;8.254;2023-11-22T06:50:27;1.70;99.90
4934;DHT22;2482;49.154;8.254;2023-11-22T06:52:54;1.90;99.90
4934;DHT22;2482;49.154;8.254;2023-11-22T06:55:21;1.90;99.90
4934;DHT22;2482;49.154;8.254;2023-11-22T06:57:48;1.80;99.90
4934;DHT22;2482;49.154;8.254;2023-11-22T07:00:17;1.80;99.90
4934;DHT22;2482;49.154;8.254;2023-11-22T07:02:44;1.80;99.90
4934;DHT22;2482;49.154;8.254;2023-11-22T07:05:11;1.80;99.90
4934;DHT22;2482;49.154;8.254;2023-11-22T07:07:40;1.70;99.90
4934;DHT22;2482;49.154;8.254;2023-11-22T07:10:08;1.60;99.90
4934;DHT22;2482;49.154;8.254;2023-11-22T07:12:38;1.50;99.90
4934;DHT22;2482;49.154;8.254;2023-11-22T07:15:06;1.60;99.90
4934;DHT22;2482;49.154;8.254;2023-11-22T07:17:34;1.70;99.90
4934;DHT22;2482;49.154;8.254;2023-11-22T07:20:01;1.70;99.90
4934;DHT22;2482;49.154;8.254;2023-11-22T07:22:28;1.60;99.90
4934;DHT22;2482;49.154;8.254;2023-11-22T07:24:57;1.70;99.90
4934;DHT22;2482;49.154;8.254;2023-11-22T07:27:28;1.70;99.90
4934;DHT22;2482;49.154;8.254;2023-11-22T07:29:58;1.90;99.90
4934;DHT22;2482;49.154;8.254;2023-11-22T07:32:25;1.80;99.90
4934;DHT22;2482;49.154;8.254;2023-11-22T07:34:53;1.90;99.90
4934;DHT22;2482;49.154;8.254;2023-11-22T07:37:30;2.10;99.90
4934;DHT22;2482;49.154;8.254;2023-11-22T07:40:06;2.20;99.90
4934;DHT22;2482;49.154;8.254;2023-11-22T07:42:35;2.00;99.90
4934;DHT22;2482;49.154;8.254;2023-11-22T07:45:03;2.00;99.90
4934;DHT22;2482;49.154;8.254;2023-11-22T07:47:31;2.00;99.90
4934;DHT22;2482;49.154;8.254;2023-11-22T07:49:58;2.10;99.90
4934;DHT22;2482;49.154;8.254;2023-11-22T07:52:25;2.10;99.90
4934;DHT22;2482;49.154;8.254;2023-11-22T07:54:58;2.20;99.90
4934;DHT22;2482;49.154;8.254;2023-11-22T07:57:25;2.20;99.90
4934;DHT22;2482;49.154;8.254;2023-11-22T07:59:52;2.30;99.90
4934;DHT22;2482;49.154;8.254;2023-11-22T08:02:22;2.30;99.90
4934;DHT22;2482;49.154;8.254;2023-11-22T08:04:49;2.30;99.90
4934;DHT22;2482;49.154;8.254;2023-11-22T08:07:17;2.30;99.90
4934;DHT22;2482;49.154;8.254;2023-11-22T08:09:45;2.30;99.90
4934;DHT22;2482;49.154;8.254;2023-11-22T08:12:12;2.30;99.90
4934;DHT22;2482;49.154;8.254;2023-11-22T08:14:39;2.30;99.90
4934;DHT22;2482;49.154;8.254;2023-11-22T08:17:12;2.30;99.90
4934;DHT22;2482;49.154;8.254;2023-11-22T08:19:40;2.30;99.90
4934;DHT22;2482;49.154;8.254;2023-11-22T08:22:08;2.50;99.90
4934;DHT22;2482;49.154;8.254;2023-11-22T08:24:35;2.50;99.90
4934;DHT22;2482;49.154;8.254;2023-11-22T08:27:03;2.40;99.90
4934;DHT22;2482;49.154;8.254;2023-11-22T08:29:30;2.40;99.90
4934;DHT22;2482;49.154;8.254;2023-11-22T08:31:58;2.50;99.90
4934;DHT22;2482;49.154;8.254;2023-11-22T08:34:25;2.50;99.90
4934;DHT22;2482;49.154;8.254;2023-11-22T08:36:59;2.60;99.90
4934;DHT22;2482;49.154;8.254;2023-11-22T08:39:29;2.60;99.90
4934;DHT22;2482;49.154;8.254;2023-11-22T08:41:59;2.70;99.90
4934;DHT22;2482;49.154;8.254;2023-11-22T08:44:26;2.70;99.90
4934;DHT22;2482;49.154;8.254;2023-11-22T08:46:53;2.70;99.90
4934;DHT22;2482;49.154;8.254;2023-11-22T08:49:20;2.70;99.90
4934;DHT22;2482;49.154;8.254;2023-11-22T08:51:47;2.80;99.90
4934;DHT22;2482;49.154;8.254;2023-11-22T08:54:15;2.80;99.90
4934;DHT22;2482;49.154;8.254;2023-11-22T08:56:43;3.00;99.90
4934;DHT22;2482;49.154;8.254;2023-11-22T08:59:10;3.10;99.90
4934;DHT22;2482;49.154;8.254;2023-11-22T09:01:39;2.90;99.90
4934;DHT22;2482;49.154;8.254;2023-11-22T09:04:08;2.90;99.90
4934;DHT22;2482;49.154;8.254;2023-11-22T09:06:35;3.00;99.90
4934;DHT22;2482;49.154;8.254;2023-11-22T09:09:04;2.90;99.90
4934;DHT22;2482;49.154;8.254;2023-11-22T09:11:33;3.00;99.90
4934;DHT22;2482;49.154;8.254;2023-11-22T09:14:01;2.80;99.90
4934;DHT22;2482;49.154;8.254;2023-11-22T09:16:38;2.70;99.90
4934;DHT22;2482;49.154;8.254;2023-11-22T09:19:07;2.90;99.90
4934;DHT22;2482;49.154;8.254;2023-11-22T09:21:34;3.00;99.90
4934;DHT22;2482;49.154;8.254;2023-11-22T09:24:01;3.00;99.90
4934;DHT22;2482;49.154;8.254;2023-11-22T09:26:31;3.20;99.90
4934;DHT22;2482;49.154;8.254;2023-11-22T09:28:58;3.30;99.90
4934;DHT22;2482;49.154;8.254;2023-11-22T09:31:26;3.20;99.90
4934;DHT22;2482;49.154;8.254;2023-11-22T09:33:53;3.10;99.90
4934;DHT22;2482;49.154;8.254;2023-11-22T09:36:23;3.10;99.90
4934;DHT22;2482;49.154;8.254;2023-11-22T09:38:54;3.20;99.90
4934;DHT22;2482;49.154;8.254;2023-11-22T09:41:21;3.30;99.90
4934;DHT22;2482;49.154;8.254;2023-11-22T09:43:48;3.20;99.90
4934;DHT22;2482;49.154;8.254;2023-11-22T09:46:17;3.20;99.90
4934;DHT22;2482;49.154;8.254;2023-11-22T09:48:47;3.10;99.90
4934;DHT22;2482;49.154;8.254;2023-11-22T09:51:23;3.10;99.90
4934;DHT22;2482;49.154;8.254;2023-11-22T09:53:59;3.10;99.90
4934;DHT22;2482;49.154;8.254;2023-11-22T09:56:32;3.30;99.90
4934;DHT22;2482;49.154;8.254;2023-11-22T09:59:00;3.40;99.90
4934;DHT22;2482;49.154;8.254;2023-11-22T10:01:30;3.20;99.90
4934;DHT22;2482;49.154;8.254;2023-11-22T10:03:58;3.10;99.90
4934;DHT22;2482;49.154;8.254;2023-11-22T10:06:26;3.40;99.90
4934;DHT22;2482;49.154;8.254;2023-11-22T10:08:57;3.40;99.90
4934;DHT22;2482;49.154;8.254;2023-11-22T10:11:24;3.50;99.90
4934;DHT22;2482;49.154;8.254;2023-11-22T10:13:51;3.30;99.90
4934;DHT22;2482;49.154;8.254;2023-11-22T10:16:20;3.30;99.90
4934;DHT22;2482;49.154;8.254;2023-11-22T10:18:48;3.40;99.90
4934;DHT22;2482;49.154;8.254;2023-11-22T10:21:25;3.50;99.90
4934;DHT22;2482;49.154;8.254;2023-11-22T10:23:55;3.40;99.90
4934;DHT22;2482;49.154;8.254;2023-11-22T10:26:24;3.50;99.90
4934;DHT22;2482;49.154;8.254;2023-11-22T10:28:53;3.40;99.90
4934;DHT22;2482;49.154;8.254;2023-11-22T10:31:22;3.50;99.90
4934;DHT22;2482;49.154;8.254;2023-11-22T10:33:50;3.60;99.90
4934;DHT22;2482;49.154;8.254;2023-11-22T10:36:18;3.70;99.90
4934;DHT22;2482;49.154;8.254;2023-11-22T10:38:48;3.60;99.90
4934;DHT22;2482;49.154;8.254;2023-11-22T10:41:15;3.60;99.90
4934;DHT22;2482;49.154;8.254;2023-11-22T10:43:47;3.70;99.90
4934;DHT22;2482;49.154;8.254;2023-11-22T10:46:15;3.90;99.90
4934;DHT22;2482;49.154;8.254;2023-11-22T10:48:44;3.70;99.90
4934;DHT22;2482;49.154;8.254;2023-11-22T10:51:13;3.50;99.90
4934;DHT22;2482;49.154;8.254;2023-11-22T10:53:51;3.50;99.90
4934;DHT22;2482;49.154;8.254;2023-11-22T10:56:20;3.50;99.90
4934;DHT22;2482;49.154;8.254;2023-11-22T10:58:55;3.40;99.90
4934;DHT22;2482;49.154;8.254;2023-11-22T11:01:27;3.40;99.90
4934;DHT22;2482;49.154;8.254;2023-11-22T11:04:09;3.30;99.90
4934;DHT22;2482;49.154;8.254;2023-11-22T11:06:47;3.20;99.90
4934;DHT22;2482;49.154;8.254;2023-11-22T11:09:19;3.30;99.90
4934;DHT22;2482;49.154;8.254;2023-11-22T11:11:48;3.00;99.90
4934;DHT22;2482;49.154;8.254;2023-11-22T11:14:16;3.00;99.90
4934;DHT22;2482;49.154;8.254;2023-11-22T11:16:45;2.90;99.90
4934;DHT22;2482;49.154;8.254;2023-11-22T11:19:17;2.90;99.90
4934;DHT22;2482;49.154;8.254;2023-11-22T11:21:45;2.90;99.90
4934;DHT22;2482;49.154;8.254;2023-11-22T11:24:15;2.90;99.90
4934;DHT22;2482;49.154;8.254;2023-11-22T11:26:48;3.00;99.90
4934;DHT22;2482;49.154;8.254;2023-11-22T11:31:58;3.10;99.90
4934;DHT22;2482;49.154;8.254;2023-11-22T11:34:25;3.00;99.90
4934;DHT22;2482;49.154;8.254;2023-11-22T11:36:53;3.00;99.90
4934;DHT22;2482;49.154;8.254;2023-11-22T11:39:27;3.10;99.90
4934;DHT22;2482;49.154;8.254;2023-11-22T11:42:08;3.10;99.90
4934;DHT22;2482;49.154;8.254;2023-11-22T11:47:28;3.00;99.90
4934;DHT22;2482;49.154;8.254;2023-11-22T11:49:55;3.00;99.90
4934;DHT22;2482;49.154;8.254;2023-11-22T11:52:25;3.10;99.90
4934;DHT22;2482;49.154;8.254;2023-11-22T11:54:52;3.10;99.90
4934;DHT22;2482;49.154;8.254;2023-11-22T11:57:19;3.10;99.90
4934;DHT22;2482;49.154;8.254;2023-11-22T11:59:49;3.10;99.90
4934;DHT22;2482;49.154;8.254;2023-11-22T12:02:18;3.20;99.90
4934;DHT22;2482;49.154;8.254;2023-11-22T12:04:46;3.20;99.90
4934;DHT22;2482;49.154;8.254;2023-11-22T12:07:19;3.50;99.90
4934;DHT22;2482;49.154;8.254;2023-11-22T12:09:48;3.40;99.90
4934;DHT22;2482;49.154;8.254;2023-11-22T12:12:16;3.30;99.90
4934;DHT22;2482;49.154;8.254;2023-11-22T12:14:44;3.30;99.90
4934;DHT22;2482;49.154;8.254;2023-11-22T12:17:11;3.40;99.90
4934;DHT22;2482;49.154;8.254;2023-11-22T12:19:40;3.40;99.90
4934;DHT22;2482;49.154;8.254;2023-11-22T12:22:07;3.40;99.90
4934;DHT22;2482;49.154;8.254;2023-11-22T12:24:35;3.40;99.90
4934;DHT22;2482;49.154;8.254;2023-11-22T12:27:08;3.50;99.90
4934;DHT22;2482;49.154;8.254;2023-11-22T12:29:37;3.40;99.90
4934;DHT22;2482;49.154;8.254;2023-11-22T12:32:04;3.30;99.90
4934;DHT22;2482;49.154;8.254;2023-11-22T12:34:35;3.30;99.90
4934;DHT22;2482;49.154;8.254;2023-11-22T12:37:02;3.40;99.90
4934;DHT22;2482;49.154;8.254;2023-11-22T12:39:30;3.40;99.90
4934;DHT22;2482;49.154;8.254;2023-11-22T12:41:59;3.60;99.90
4934;DHT22;2482;49.154;8.254;2023-11-22T12:44:50;3.60;99.90
4934;DHT22;2482;49.154;8.254;2023-11-22T12:47:32;3.70;99.90
4934;DHT22;2482;49.154;8.254;2023-11-22T12:50:03;3.80;99.90
4934;DHT22;2482;49.154;8.254;2023-11-22T12:52:31;3.80;99.90
4934;DHT22;2482;49.154;8.254;2023-11-22T12:54:59;3.70;99.90
4934;DHT22;2482;49.154;8.254;2023-11-22T12:57:26;3.70;99.90
4934;DHT22;2482;49.154;8.254;2023-11-22T12:59:53;3.90;99.90
4934;DHT22;2482;49.154;8.254;2023-11-22T13:02:21;3.80;99.90
4934;DHT22;2482;49.154;8.254;2023-11-22T13:04:50;4.00;99.90
4934;DHT22;2482;49.154;8.254;2023-11-22T13:07:18;4.00;99.90
4934;DHT22;2482;49.154;8.254;2023-11-22T13:09:46;3.90;99.90
4934;DHT22;2482;49.154;8.254;2023-11-22T13:12:14;3.80;99.90
4934;DHT22;2482;49.154;8.254;2023-11-22T13:14:41;3.80;99.90
4934;DHT22;2482;49.154;8.254;2023-11-22T13:17:08;3.70;99.90
4934;DHT22;2482;49.154;8.254;2023-11-22T13:19:38;3.80;99.90
4934;DHT22;2482;49.154;8.254;2023-11-22T13:22:06;3.90;99.90
4934;DHT22;2482;49.154;8.254;2023-11-22T13:24:35;3.80;99.90
4934;DHT22;2482;49.154;8.254;2023-11-22T13:27:02;3.80;99.90
4934;DHT22;2482;49.154;8.254;2023-11-22T13:29:30;4.00;99.90
4934;DHT22;2482;49.154;8.254;2023-11-22T13:31:58;4.10;99.90
4934;DHT22;2482;49.154;8.254;2023-11-22T13:34:28;4.10;99.90
4934;DHT22;2482;49.154;8.254;2023-11-22T13:36:55;3.90;99.90
4934;DHT22;2482;49.154;8.254;2023-11-22T13:39:22;3.80;99.90
4934;DHT22;2482;49.154;8.254;2023-11-22T13:41:49;3.80;99.90
4934;DHT22;2482;49.154;8.254;2023-11-22T13:44:16;3.80;99.90
4934;DHT22;2482;49.154;8.254;2023-11-22T13:46:45;3.60;99.90
4934;DHT22;2482;49.154;8.254;2023-11-22T13:49:12;3.60;99.90
4934;DHT22;2482;49.154;8.254;2023-11-22T13:51:40;3.70;99.90
4934;DHT22;2482;49.154;8.254;2023-11-22T13:54:09;3.80;99.90
4934;DHT22;2482;49.154;8.254;2023-11-22T13:56:38;3.80;99.90
4934;DHT22;2482;49.154;8.254;2023-11-22T13:59:05;3.70;99.90
4934;DHT22;2482;49.154;8.254;2023-11-22T14:01:32;3.60;99.90
4934;DHT22;2482;49.154;8.254;2023-11-22T14:03:59;3.50;99.90
4934;DHT22;2482;49.154;8.254;2023-11-22T14:06:27;3.50;99.90
4934;DHT22;2482;49.154;8.254;2023-11-22T14:08:54;3.50;99.90
4934;DHT22;2482;49.154;8.254;2023-11-22T14:11:23;3.50;99.90
4934;DHT22;2482;49.154;8.254;2023-11-22T14:13:50;3.60;99.90
4934;DHT22;2482;49.154;8.254;2023-11-22T14:16:18;3.60;99.90
4934;DHT22;2482;49.154;8.254;2023-11-22T14:18:45;3.70;99.90
4934;DHT22;2482;49.154;8.254;2023-11-22T14:21:13;3.90;99.90
4934;DHT22;2482;49.154;8.254;2023-11-22T14:23:40;3.80;99.90
4934;DHT22;2482;49.154;8.254;2023-11-22T14:26:07;3.90;99.90
4934;DHT22;2482;49.154;8.254;2023-11-22T14:28:34;4.00;99.90
4934;DHT22;2482;49.154;8.254;2023-11-22T14:31:01;4.10;99.90
4934;DHT22;2482;49.154;8.254;2023-11-22T14:33:30;4.10;99.90
4934;DHT22;2482;49.154;8.254;2023-11-22T14:35:59;4.00;99.90
4934;DHT22;2482;49.154;8.254;2023-11-22T14:38:26;3.90;99.90
4934;DHT22;2482;49.154;8.254;2023-11-22T14:40:53;3.90;99.90
4934;DHT22;2482;49.154;8.254;2023-11-22T14:43:23;3.70;99.90
4934;DHT22;2482;49.154;8.254;2023-11-22T14:45:50;3.70;99.90
4934;DHT22;2482;49.154;8.254;2023-11-22T14:48:17;3.80;99.90
4934;DHT22;2482;49.154;8.254;2023-11-22T14:50:45;3.80;99.90
4934;DHT22;2482;49.154;8.254;2023-11-22T14:53:13;3.70;99.90
4934;DHT22;2482;49.154;8.254;2023-11-22T14:55:40;3.90;99.90
4934;DHT22;2482;49.154;8.254;2023-11-22T14:58:08;3.70;99.90
4934;DHT22;2482;49.154;8.254;2023-11-22T15:00:35;3.70;99.90
4934;DHT22;2482;49.154;8.254;2023-11-22T15:03:04;3.60;99.90
4934;DHT22;2482;49.154;8.254;2023-11-22T15:05:31;3.60;99.90
4934;DHT22;2482;49.154;8.254;2023-11-22T15:07:59;3.70;99.90
4934;DHT22;2482;49.154;8.254;2023-11-22T15:10:26;3.60;99.90
4934;DHT22;2482;49.154;8.254;2023-11-22T15:12:53;3.60;99.90
4934;DHT22;2482;49.154;8.254;2023-11-22T15:15:22;3.60;99.90
4934;DHT22;2482;49.154;8.254;2023-11-22T15:17:52;3.60;99.90
4934;DHT22;2482;49.154;8.254;2023-11-22T15:20:19;3.30;99.90
4934;DHT22;2482;49.154;8.254;2023-11-22T15:22:46;3.30;99.90
4934;DHT22;2482;49.154;8.254;2023-11-22T15:25:13;3.30;99.90
4934;DHT22;2482;49.154;8.254;2023-11-22T15:27:42;3.20;99.90
4934;DHT22;2482;49.154;8.254;2023-11-22T15:30:11;3.10;99.90
4934;DHT22;2482;49.154;8.254;2023-11-22T15:32:39;3.10;99.90
4934;DHT22;2482;49.154;8.254;2023-11-22T15:35:06;3.00;99.90
4934;DHT22;2482;49.154;8.254;2023-11-22T15:37:35;2.90;99.90
4934;DHT22;2482;49.154;8.254;2023-11-22T15:40:02;2.90;99.90
4934;DHT22;2482;49.154;8.254;2023-11-22T15:42:29;2.90;99.90
4934;DHT22;2482;49.154;8.254;2023-11-22T15:44:56;2.80;99.90
4934;DHT22;2482;49.154;8.254;2023-11-22T15:47:24;3.00;99.90
4934;DHT22;2482;49.154;8.254;2023-11-22T15:49:51;2.90;99.90
4934;DHT22;2482;49.154;8.254;2023-11-22T15:52:18;3.00;99.90
4934;DHT22;2482;49.154;8.254;2023-11-22T15:54:45;2.90;99.90
4934;DHT22;2482;49.154;8.254;2023-11-22T15:57:14;2.90;99.90
4934;DHT22;2482;49.154;8.254;2023-11-22T15:59:41;2.70;99.90
4934;DHT22;2482;49.154;8.254;2023-11-22T16:02:09;2.70;99.90
4934;DHT22;2482;49.154;8.254;2023-11-22T16:04:36;2.60;99.90
4934;DHT22;2482;49.154;8.254;2023-11-22T16:07:03;2.40;99.90
4934;DHT22;2482;49.154;8.254;2023-11-22T16:09:30;2.10;99.90
4934;DHT22;2482;49.154;8.254;2023-11-22T16:11:57;2.10;99.90
4934;DHT22;2482;49.154;8.254;2023-11-22T16:14:25;1.90;99.90
4934;DHT22;2482;49.154;8.254;2023-11-22T16:16:52;1.90;99.90
4934;DHT22;2482;49.154;8.254;2023-11-22T16:19:19;2.00;99.90
4934;DHT22;2482;49.154;8.254;2023-11-22T16:21:46;1.90;99.90
4934;DHT22;2482;49.154;8.254;2023-11-22T16:24:13;2.00;99.90
4934;DHT22;2482;49.154;8.254;2023-11-22T16:26:42;2.00;99.90
4934;DHT22;2482;49.154;8.254;2023-11-22T16:29:12;2.00;99.90